createdAt,value
2019-01-06T00:00:27.444Z,0
2019-01-06T00:01:07.832Z,0
2019-01-06T00:01:48.241Z,0
2019-01-06T00:02:28.650Z,0
2019-01-06T00:03:09.007Z,0
2019-01-06T00:03:51.027Z,0
2019-01-06T00:04:33.129Z,0
2019-01-06T00:05:13.605Z,0
2019-01-06T00:05:54.943Z,0
2019-01-06T00:06:35.579Z,0
2019-01-06T00:07:15.970Z,0
2019-01-06T00:07:56.335Z,0
2019-01-06T00:08:36.778Z,0
2019-01-06T00:09:17.263Z,0
2019-01-06T00:09:58.483Z,0
2019-01-06T00:10:38.896Z,0
2019-01-06T00:11:19.314Z,0
2019-01-06T00:11:59.667Z,0
2019-01-06T00:12:40.140Z,0
2019-01-06T00:13:22.504Z,0
2019-01-06T00:14:02.878Z,0
2019-01-06T00:14:43.276Z,0
2019-01-06T00:15:23.739Z,0
2019-01-06T00:16:04.088Z,0
2019-01-06T00:16:44.535Z,0
2019-01-06T00:17:24.861Z,0
2019-01-06T00:18:05.265Z,0
2019-01-06T00:18:45.703Z,0
2019-01-06T00:19:26.108Z,0
2019-01-06T00:20:06.531Z,0
2019-01-06T00:20:46.905Z,0
2019-01-06T00:21:27.339Z,0
2019-01-06T00:22:08.014Z,0
2019-01-06T00:22:48.408Z,0
2019-01-06T00:23:28.802Z,0
2019-01-06T00:24:09.200Z,0
2019-01-06T00:31:30.985Z,0
2019-01-06T00:32:11.243Z,0
2019-01-06T00:32:51.699Z,0
2019-01-06T00:33:32.236Z,0
2019-01-06T00:34:14.140Z,0
2019-01-06T00:34:56.259Z,0
2019-01-06T00:35:36.824Z,0
2019-01-06T00:36:17.008Z,0
2019-01-06T00:36:57.476Z,0
2019-01-06T00:37:37.803Z,0
2019-01-06T00:38:19.173Z,0
2019-01-06T00:38:59.567Z,0
2019-01-06T00:39:39.960Z,0
2019-01-06T00:40:20.324Z,0
2019-01-06T00:41:00.863Z,0
2019-01-06T00:41:41.204Z,0
2019-01-06T00:42:21.647Z,0
2019-01-06T00:43:05.996Z,0
2019-01-06T00:43:47.343Z,0
2019-01-06T00:44:29.462Z,0
2019-01-06T00:45:11.461Z,0
2019-01-06T00:48:50.776Z,0
2019-01-06T00:49:31.786Z,0
2019-01-06T00:50:12.206Z,0
2019-01-06T00:50:52.644Z,0
2019-01-06T00:51:33.981Z,0
2019-01-06T00:52:14.458Z,0
2019-01-06T00:52:54.908Z,0
2019-01-06T00:53:37.172Z,0
2019-01-06T00:54:18.547Z,0
2019-01-06T00:55:10.345Z,0
2019-01-06T00:55:52.280Z,0
2019-01-06T00:56:43.509Z,0
2019-01-06T00:57:23.873Z,0
2019-01-06T00:58:04.352Z,0
2019-01-06T00:58:44.705Z,0
2019-01-06T00:59:26.840Z,0
2019-01-06T01:00:07.265Z,0
2019-01-06T01:00:50.465Z,0
2019-01-06T01:01:31.129Z,0
2019-01-06T01:02:11.711Z,0
2019-01-06T01:02:52.039Z,0
2019-01-06T01:03:34.670Z,0
2019-01-06T01:04:16.672Z,0
2019-01-06T01:04:57.221Z,0
2019-01-06T01:05:39.487Z,0
2019-01-06T01:06:21.390Z,0
2019-01-06T01:07:02.094Z,0
2019-01-06T01:07:42.437Z,0
2019-01-06T01:08:23.077Z,0
2019-01-06T01:09:04.461Z,0
2019-01-06T01:09:44.877Z,0
2019-01-06T01:10:26.229Z,0
2019-01-06T01:11:06.680Z,0
2019-01-06T01:11:48.552Z,0
2019-01-06T01:12:34.147Z,0
2019-01-06T01:13:17.396Z,0
2019-01-06T01:13:57.859Z,0
2019-01-06T01:14:38.178Z,0
2019-01-06T01:15:18.512Z,0
2019-01-06T01:15:59.879Z,0
2019-01-06T01:16:42.054Z,0
2019-01-06T01:17:39.523Z,0
2019-01-06T01:18:21.608Z,0
2019-01-06T01:19:02.036Z,0
2019-01-06T01:19:42.375Z,0
2019-01-06T01:20:24.570Z,0
2019-01-06T01:21:07.952Z,0
2019-01-06T01:21:49.469Z,0
2019-01-06T01:22:32.311Z,0
2019-01-06T01:23:14.576Z,0
2019-01-06T01:23:54.974Z,0
2019-01-06T01:24:38.345Z,0
2019-01-06T01:25:18.837Z,0
2019-01-06T01:26:00.239Z,0
2019-01-06T01:26:47.987Z,0
2019-01-06T01:27:21.011Z,0
2019-01-06T01:31:30.778Z,0
2019-01-06T01:32:11.521Z,0
2019-01-06T01:32:57.501Z,0
2019-01-06T01:33:37.961Z,0
2019-01-06T01:34:18.334Z,0
2019-01-06T01:35:00.974Z,0
2019-01-06T01:35:43.153Z,0
2019-01-06T01:36:25.495Z,0
2019-01-06T01:37:05.974Z,0
2019-01-06T01:37:46.354Z,0
2019-01-06T01:38:27.784Z,0
2019-01-06T01:39:08.129Z,0
2019-01-06T01:39:48.583Z,0
2019-01-06T01:40:30.059Z,0
2019-01-06T01:41:11.359Z,0
2019-01-06T01:41:51.760Z,0
2019-01-06T01:44:22.203Z,0
2019-01-06T01:45:05.734Z,0
2019-01-06T01:45:47.048Z,0
2019-01-06T01:46:29.399Z,0
2019-01-06T01:47:10.750Z,0
2019-01-06T01:47:52.124Z,0
2019-01-06T01:48:32.933Z,0
2019-01-06T01:49:13.378Z,0
2019-01-06T01:49:53.782Z,0
2019-01-06T01:50:34.303Z,0
2019-01-06T01:51:14.874Z,0
2019-01-06T01:51:55.218Z,0
2019-01-06T01:52:35.650Z,0
2019-01-06T01:53:15.998Z,0
2019-01-06T01:53:56.531Z,0
2019-01-06T01:54:37.136Z,0
2019-01-06T01:55:21.193Z,0
2019-01-06T01:56:03.815Z,0
2019-01-06T01:56:43.994Z,0
2019-01-06T01:57:24.400Z,0
2019-01-06T01:58:04.794Z,0
2019-01-06T01:58:45.221Z,0
2019-01-06T01:59:25.667Z,0
2019-01-06T02:00:09.745Z,0
2019-01-06T02:00:51.089Z,0
2019-01-06T02:01:31.488Z,0
2019-01-06T02:02:11.887Z,0
2019-01-06T02:02:52.290Z,0
2019-01-06T02:03:32.674Z,0
2019-01-06T02:04:13.356Z,0
2019-01-06T02:04:53.932Z,0
2019-01-06T02:05:35.204Z,0
2019-01-06T02:06:15.641Z,0
2019-01-06T02:06:56.029Z,0
2019-01-06T02:07:38.139Z,0
2019-01-06T02:08:18.503Z,0
2019-01-06T02:08:59.294Z,0
2019-01-06T02:09:42.165Z,0
2019-01-06T02:10:22.667Z,0
2019-01-06T02:11:03.042Z,0
2019-01-06T02:11:45.223Z,0
2019-01-06T02:12:25.733Z,0
2019-01-06T02:13:06.135Z,0
2019-01-06T02:13:46.621Z,0
2019-01-06T02:14:27.220Z,0
2019-01-06T02:15:09.568Z,0
2019-01-06T02:15:50.124Z,0
2019-01-06T02:16:30.536Z,0
2019-01-06T02:17:11.732Z,0
2019-01-06T02:17:53.860Z,0
2019-01-06T02:18:34.461Z,0
2019-01-06T02:19:16.555Z,0
2019-01-06T02:19:56.949Z,0
2019-01-06T02:20:39.399Z,0
2019-01-06T02:21:21.620Z,0
2019-01-06T02:22:05.741Z,0
2019-01-06T02:22:47.921Z,0
2019-01-06T02:23:28.145Z,0
2019-01-06T02:24:09.494Z,0
2019-01-06T02:24:50.817Z,0
2019-01-06T02:25:33.205Z,0
2019-01-06T02:26:13.648Z,0
2019-01-06T02:26:57.717Z,0
2019-01-06T02:27:38.028Z,0
2019-01-06T02:28:19.382Z,0
2019-01-06T02:28:59.874Z,0
2019-01-06T02:29:40.615Z,0
2019-01-06T02:30:21.026Z,0
2019-01-06T02:31:01.353Z,0
2019-01-06T02:31:43.741Z,0
2019-01-06T02:32:26.184Z,0
2019-01-06T02:33:06.548Z,0
2019-01-06T02:33:46.872Z,0
2019-01-06T02:34:27.368Z,0
2019-01-06T02:35:08.592Z,0
2019-01-06T02:35:49.203Z,0
2019-01-06T02:36:29.590Z,0
2019-01-06T02:37:10.042Z,0
2019-01-06T02:37:53.538Z,0
2019-01-06T02:38:33.940Z,0
2019-01-06T02:39:14.264Z,0
2019-01-06T02:39:54.748Z,0
2019-01-06T02:40:35.234Z,0
2019-01-06T02:41:15.767Z,0
2019-01-06T02:41:57.219Z,0
2019-01-06T02:42:37.635Z,0
2019-01-06T02:43:18.951Z,0
2019-01-06T02:43:59.398Z,0
2019-01-06T02:44:41.367Z,0
2019-01-06T02:45:21.955Z,0
2019-01-06T02:46:02.547Z,0
2019-01-06T02:46:44.638Z,0
2019-01-06T02:47:29.824Z,0
2019-01-06T02:48:10.303Z,0
2019-01-06T02:48:50.613Z,0
2019-01-06T02:49:30.991Z,0
2019-01-06T02:50:11.415Z,0
2019-01-06T02:50:53.685Z,0
2019-01-06T02:51:35.996Z,0
2019-01-06T02:52:16.452Z,0
2019-01-06T02:52:56.758Z,0
2019-01-06T02:53:37.185Z,0
2019-01-06T02:54:17.577Z,0
2019-01-06T02:54:58.011Z,0
2019-01-06T02:55:39.362Z,0
2019-01-06T02:56:19.741Z,0
2019-01-06T02:57:00.186Z,0
2019-01-06T02:57:40.611Z,0
2019-01-06T02:58:21.064Z,0
2019-01-06T02:59:01.355Z,0
2019-01-06T02:59:41.788Z,0
2019-01-06T03:00:23.063Z,0
2019-01-06T03:01:03.515Z,0
2019-01-06T03:01:43.858Z,0
2019-01-06T03:02:26.182Z,0
2019-01-06T03:03:06.534Z,0
2019-01-06T03:03:46.982Z,0
2019-01-06T03:04:27.312Z,0
2019-01-06T03:05:07.787Z,0
2019-01-06T03:05:50.694Z,0
2019-01-06T03:06:32.657Z,0
2019-01-06T03:07:13.019Z,0
2019-01-06T03:07:53.560Z,0
2019-01-06T03:08:33.937Z,0
2019-01-06T03:09:14.355Z,0
2019-01-06T03:09:54.804Z,0
2019-01-06T03:10:35.209Z,0
2019-01-06T03:11:15.673Z,0
2019-01-06T03:11:58.293Z,0
2019-01-06T03:12:38.691Z,0
2019-01-06T03:18:31.797Z,0
2019-01-06T03:19:13.045Z,0
2019-01-06T03:19:55.451Z,0
2019-01-06T03:20:37.069Z,0
2019-01-06T03:21:17.490Z,0
2019-01-06T03:21:59.690Z,0
2019-01-06T03:22:43.903Z,0
2019-01-06T03:23:24.147Z,0
2019-01-06T03:24:04.649Z,0
2019-01-06T03:24:45.155Z,0
2019-01-06T03:25:25.687Z,0
2019-01-06T03:26:06.439Z,0
2019-01-06T03:26:48.583Z,0
2019-01-06T03:27:28.937Z,0
2019-01-06T03:28:09.314Z,0
2019-01-06T03:43:33.291Z,0
2019-01-06T03:44:15.133Z,0
2019-01-06T03:44:55.512Z,0
2019-01-06T03:45:37.630Z,0
2019-01-06T03:46:18.052Z,0
2019-01-06T03:46:58.532Z,0
2019-01-06T03:47:39.095Z,0
2019-01-06T03:48:19.493Z,0
2019-01-06T03:48:59.890Z,0
2019-01-06T03:49:40.373Z,0
2019-01-06T03:50:20.673Z,0
2019-01-06T03:51:01.096Z,0
2019-01-06T03:51:41.503Z,0
2019-01-06T03:52:23.917Z,0
2019-01-06T03:53:10.804Z,0
2019-01-06T03:53:52.345Z,0
2019-01-06T03:54:34.196Z,0
2019-01-06T03:55:14.687Z,0
2019-01-06T03:55:55.440Z,0
2019-01-06T03:56:35.823Z,0
2019-01-06T03:57:18.331Z,0
2019-01-06T03:57:58.765Z,0
2019-01-06T03:58:40.087Z,0
2019-01-06T03:59:20.457Z,0
2019-01-06T04:00:01.441Z,0
2019-01-06T04:00:41.307Z,0
2019-01-06T04:01:23.320Z,0
2019-01-06T04:02:03.647Z,0
2019-01-06T04:02:43.985Z,0
2019-01-06T04:03:25.349Z,0
2019-01-06T04:04:05.724Z,0
2019-01-06T04:04:46.097Z,0
2019-01-06T04:05:28.134Z,0
2019-01-06T04:06:08.531Z,0
2019-01-06T04:06:49.996Z,0
2019-01-06T04:07:30.337Z,0
2019-01-06T04:08:12.568Z,0
2019-01-06T04:08:52.933Z,0
2019-01-06T04:09:33.356Z,0
2019-01-06T04:10:13.728Z,0
2019-01-06T04:10:57.824Z,0
2019-01-06T04:11:38.957Z,0
2019-01-06T04:12:21.063Z,0
2019-01-06T04:13:01.835Z,0
2019-01-06T04:13:43.164Z,0
2019-01-06T04:26:15.178Z,0
2019-01-06T04:26:55.293Z,0
2019-01-06T04:27:37.492Z,0
2019-01-06T05:13:46.467Z,0
2019-01-06T05:14:34.942Z,0
2019-01-06T05:15:16.530Z,0
2019-01-06T05:15:56.889Z,0
2019-01-06T05:16:41.690Z,0
2019-01-06T05:17:25.311Z,0
2019-01-06T05:18:05.873Z,0
2019-01-06T05:18:47.034Z,0
2019-01-06T05:19:27.754Z,0
2019-01-06T05:20:10.042Z,0
2019-01-06T05:20:50.463Z,0
2019-01-06T05:21:30.965Z,0
2019-01-06T05:22:13.930Z,0
2019-01-06T05:22:56.183Z,0
2019-01-06T05:23:37.735Z,0
2019-01-06T05:24:22.035Z,0
2019-01-06T05:25:02.238Z,0
2019-01-06T05:25:42.787Z,0
2019-01-06T05:26:24.959Z,0
2019-01-06T05:27:06.976Z,0
2019-01-06T05:27:47.400Z,0
2019-01-06T05:28:29.527Z,0
2019-01-06T05:29:11.765Z,0
2019-01-06T05:29:53.315Z,0
2019-01-06T05:30:39.220Z,0
2019-01-06T05:31:20.593Z,0
2019-01-06T05:32:00.934Z,0
2019-01-06T05:32:46.901Z,0
2019-01-06T05:33:28.993Z,0
2019-01-06T05:34:10.985Z,0
2019-01-06T05:34:52.341Z,0
2019-01-06T05:35:34.553Z,0
2019-01-06T05:36:14.963Z,0
2019-01-06T05:36:55.310Z,0
2019-01-06T05:37:35.704Z,0
2019-01-06T05:38:16.885Z,0
2019-01-06T05:38:59.361Z,0
2019-01-06T05:39:39.651Z,0
2019-01-06T05:40:20.120Z,0
2019-01-06T05:41:00.463Z,0
2019-01-06T05:41:41.472Z,0
2019-01-06T05:42:21.909Z,0
2019-01-06T05:43:02.317Z,0
2019-01-06T05:43:42.710Z,0
2019-01-06T05:44:23.110Z,0
2019-01-06T05:45:04.435Z,0
2019-01-06T05:45:46.827Z,0
2019-01-06T05:46:28.623Z,0
2019-01-06T05:47:09.135Z,0
2019-01-06T05:59:46.234Z,0
2019-01-06T08:08:48.943Z,52
2019-01-06T08:09:44.961Z,48
2019-01-06T08:16:55.778Z,64
2019-01-06T08:17:49.843Z,56
2019-01-06T08:18:44.208Z,56
2019-01-06T08:19:37.825Z,64
2019-01-06T08:20:32.802Z,56
2019-01-06T08:21:25.966Z,68
2019-01-06T08:22:19.085Z,76
2019-01-06T08:23:11.672Z,72
2019-01-06T08:24:06.168Z,68
2019-01-06T08:24:59.093Z,72
2019-01-06T08:25:52.414Z,84
2019-01-06T08:26:45.585Z,88
2019-01-06T08:27:38.520Z,80
2019-01-06T08:28:30.912Z,84
2019-01-06T08:29:26.514Z,104
2019-01-06T08:30:20.475Z,76
2019-01-06T08:31:15.353Z,92
2019-01-06T08:32:08.017Z,84
2019-01-06T08:41:02.455Z,116
2019-01-06T08:41:56.230Z,124
2019-01-06T08:42:49.553Z,144
2019-01-06T08:43:44.201Z,128
2019-01-06T08:44:37.941Z,160
2019-01-06T08:45:34.530Z,160
2019-01-06T08:46:31.354Z,152
2019-01-06T08:47:23.361Z,144
2019-01-06T08:48:19.352Z,144
2019-01-06T08:49:12.900Z,172
2019-01-06T08:50:06.990Z,176
2019-01-06T08:51:02.783Z,176
2019-01-06T08:51:56.445Z,192
2019-01-06T08:52:48.610Z,168
2019-01-06T08:53:42.443Z,156
2019-01-06T08:54:34.932Z,144
2019-01-06T08:55:28.148Z,136
2019-01-06T08:56:20.504Z,128
2019-01-06T08:57:13.290Z,124
2019-01-06T08:58:06.717Z,124
2019-01-06T08:59:01.548Z,124
2019-01-06T08:59:54.498Z,128
2019-01-06T09:00:49.583Z,156
2019-01-06T09:01:45.064Z,132
2019-01-06T09:02:37.271Z,148
2019-01-06T09:03:31.949Z,144
2019-01-06T09:04:26.429Z,140
2019-01-06T09:05:19.799Z,124
2019-01-06T09:06:14.882Z,120
2019-01-06T09:07:08.517Z,128
2019-01-06T09:08:01.970Z,148
2019-01-06T09:08:56.959Z,168
2019-01-06T09:09:52.830Z,172
2019-01-06T09:10:44.598Z,144
2019-01-06T09:11:37.374Z,148
2019-01-06T09:12:31.189Z,156
2019-01-06T09:13:25.664Z,168
2019-01-06T09:14:19.144Z,160
2019-01-06T09:15:17.272Z,172
2019-01-06T09:16:12.533Z,184
2019-01-06T09:17:07.618Z,172
2019-01-06T09:18:01.668Z,144
2019-01-06T09:18:55.957Z,168
2019-01-06T09:19:50.381Z,212
2019-01-06T09:20:44.242Z,224
2019-01-06T09:21:36.839Z,204
2019-01-06T09:22:30.497Z,196
2019-01-06T09:23:23.811Z,196
2019-01-06T09:24:18.837Z,208
2019-01-06T09:25:12.114Z,212
2019-01-06T09:25:54.878Z,236
2019-01-06T09:26:35.378Z,220
2019-01-06T09:27:15.813Z,216
2019-01-06T09:27:56.203Z,212
2019-01-06T09:28:36.678Z,240
2019-01-06T09:29:17.156Z,220
2019-01-06T09:29:57.507Z,208
2019-01-06T09:30:38.194Z,240
2019-01-06T09:31:18.771Z,212
2019-01-06T09:32:02.367Z,228
2019-01-06T09:32:39.477Z,240
2019-01-06T09:33:19.860Z,240
2019-01-06T09:34:00.375Z,248
2019-01-06T09:34:40.777Z,244
2019-01-06T09:35:21.116Z,240
2019-01-06T09:36:02.103Z,244
2019-01-06T09:36:42.206Z,248
2019-01-06T09:37:22.574Z,284
2019-01-06T09:38:03.383Z,272
2019-01-06T09:38:43.854Z,240
2019-01-06T09:39:24.516Z,268
2019-01-06T09:40:04.918Z,276
2019-01-06T09:40:47.774Z,256
2019-01-06T09:41:28.277Z,300
2019-01-06T09:42:08.615Z,288
2019-01-06T09:42:48.957Z,264
2019-01-06T09:43:29.466Z,280
2019-01-06T09:44:10.126Z,280
2019-01-06T09:44:50.457Z,304
2019-01-06T09:45:31.014Z,292
2019-01-06T09:46:11.753Z,268
2019-01-06T09:46:52.165Z,288
2019-01-06T09:47:32.463Z,288
2019-01-06T09:48:12.871Z,304
2019-01-06T09:48:53.529Z,288
2019-01-06T09:49:34.818Z,252
2019-01-06T09:50:15.160Z,236
2019-01-06T10:19:43.486Z,304
2019-01-06T10:20:27.136Z,348
2019-01-06T10:21:11.167Z,332
2019-01-06T10:21:53.510Z,304
2019-01-06T10:22:34.203Z,284
2019-01-06T10:23:16.128Z,300
2019-01-06T10:23:58.812Z,308
2019-01-06T10:24:41.766Z,344
2019-01-06T10:25:26.881Z,364
2019-01-06T10:26:43.292Z,328
2019-01-06T10:27:23.530Z,396
2019-01-06T10:28:04.042Z,396
2019-01-06T10:28:49.778Z,404
2019-01-06T11:22:58.507Z,428
2019-01-06T11:23:43.920Z,424
2019-01-06T11:24:28.838Z,536
2019-01-06T11:25:09.177Z,588
2019-01-06T11:25:54.420Z,600
2019-01-06T11:26:38.391Z,608
2019-01-06T11:27:20.754Z,580
2019-01-06T11:28:04.627Z,592
2019-01-06T11:28:48.972Z,692
2019-01-06T11:29:29.301Z,692
2019-01-06T11:30:11.684Z,704
2019-01-06T11:30:54.125Z,708
2019-01-06T11:31:34.534Z,628
2019-01-06T11:32:16.716Z,624
2019-01-06T11:32:57.080Z,612
2019-01-06T11:33:37.663Z,612
2019-01-06T11:34:17.859Z,600
2019-01-06T11:34:58.869Z,512
2019-01-06T11:35:40.689Z,448
2019-01-06T11:36:21.951Z,476
2019-01-06T11:37:02.400Z,524
2019-01-06T11:37:44.482Z,556
2019-01-06T11:38:26.801Z,520
2019-01-06T11:39:09.552Z,568
2019-01-06T11:39:49.991Z,600
2019-01-06T11:40:33.366Z,612
2019-01-06T11:41:13.908Z,556
2019-01-06T11:41:56.127Z,580
2019-01-06T11:42:38.274Z,612
2019-01-06T11:43:22.294Z,556
2019-01-06T11:44:11.399Z,568
2019-01-06T11:45:00.434Z,504
2019-01-06T11:45:40.902Z,524
2019-01-06T11:46:27.225Z,604
2019-01-06T11:47:10.229Z,628
2019-01-06T11:47:52.479Z,644
2019-01-06T11:48:32.921Z,552
2019-01-06T11:49:17.186Z,600
2019-01-06T11:49:58.079Z,704
2019-01-06T11:50:38.917Z,676
2019-01-06T11:51:19.296Z,716
2019-01-06T11:52:02.173Z,680
2019-01-06T11:52:42.899Z,692
2019-01-06T11:53:23.323Z,596
2019-01-06T11:54:03.735Z,616
2019-01-06T11:54:44.687Z,716
2019-01-06T11:55:26.990Z,744
2019-01-06T11:56:07.358Z,716
2019-01-06T11:56:50.185Z,696
2019-01-06T11:57:35.151Z,692
2019-01-06T11:58:16.877Z,640
2019-01-06T11:58:59.471Z,640
2019-01-06T11:59:39.878Z,668
2019-01-06T12:00:20.309Z,724
2019-01-06T12:01:03.600Z,688
2019-01-06T12:01:43.671Z,572
2019-01-06T12:02:25.592Z,708
2019-01-06T12:03:06.489Z,716
2019-01-06T12:03:48.594Z,704
2019-01-06T12:04:29.707Z,724
2019-01-06T12:05:16.102Z,700
2019-01-06T12:05:56.669Z,708
2019-01-06T12:06:39.613Z,724
2019-01-06T12:07:23.215Z,916
2019-01-06T12:08:05.725Z,1112
2019-01-06T12:08:50.424Z,1120
2019-01-06T12:09:30.827Z,1184
2019-01-06T12:10:18.473Z,1432
2019-01-06T12:11:00.092Z,1656
2019-01-06T12:11:52.489Z,1732
2019-01-06T12:12:32.883Z,1568
2019-01-06T12:13:15.113Z,1320
2019-01-06T12:13:58.052Z,1052
2019-01-06T12:14:52.437Z,820
2019-01-06T12:15:34.816Z,756
2019-01-06T12:16:15.912Z,696
2019-01-06T12:17:00.513Z,644
2019-01-06T12:17:44.396Z,632
2019-01-06T12:18:28.491Z,636
2019-01-06T12:19:09.829Z,592
2019-01-06T12:19:50.251Z,556
2019-01-06T12:20:31.558Z,568
2019-01-06T16:09:30.031Z,0
2019-01-06T16:10:23.351Z,0
2019-01-06T16:11:18.646Z,0
2019-01-06T16:12:13.494Z,0
2019-01-06T16:13:05.612Z,0
2019-01-06T16:13:58.335Z,0
2019-01-06T16:14:50.915Z,0
2019-01-06T16:15:43.549Z,0
2019-01-06T16:16:36.558Z,0
2019-01-06T16:17:31.014Z,0
2019-01-06T16:18:25.386Z,0
2019-01-06T16:19:20.189Z,0
2019-01-06T16:20:14.351Z,0
2019-01-06T16:21:08.584Z,0
2019-01-06T16:22:02.829Z,0
2019-01-06T16:22:56.940Z,0
2019-01-06T16:23:49.746Z,0
2019-01-06T16:24:43.359Z,0
2019-01-06T16:25:37.401Z,0
2019-01-06T16:26:31.302Z,0
2019-01-06T16:27:26.853Z,0
2019-01-06T16:28:21.010Z,0
2019-01-06T16:29:15.646Z,0
2019-01-06T16:30:10.033Z,0
2019-01-06T16:31:02.318Z,0
2019-01-06T19:20:18.494Z,0
2019-01-06T19:20:58.900Z,0
2019-01-06T19:21:39.290Z,0
2019-01-06T19:22:19.698Z,0
2019-01-06T19:23:00.154Z,0
2019-01-06T19:23:40.553Z,0
2019-01-06T19:24:20.880Z,0
2019-01-06T19:25:01.431Z,0
2019-01-06T19:25:41.676Z,0
2019-01-06T19:26:22.094Z,0
2019-01-06T19:27:02.456Z,0
2019-01-06T19:27:42.923Z,0
2019-01-06T19:28:23.345Z,0
2019-01-06T19:29:03.726Z,0
2019-01-06T19:29:44.252Z,0
2019-01-06T19:30:24.669Z,0
2019-01-06T19:31:05.480Z,0
2019-01-06T19:31:45.814Z,0
2019-01-06T19:32:26.582Z,0
2019-01-06T19:33:06.854Z,0
2019-01-06T19:33:47.180Z,0
